Terminal Aerodrome Forecast
Issued by NWS

Home | Current Version | Previous Version | Graphics & Text | Print | Product List | Glossary On
Versions: 1 2 3 4 5 6 7 8 9 10 11 12 13 14 15 16 17 18 19 20 21 22 23
000
FTUS43 KGRB 262300
TAFAUW
TAF
KAUW 262337Z 2700/2724 05003KT 6SM BR OVC009
     FM270800 01005KT 2SM -SN BR OVC008
     FM271200 04005KT 1SM -SN BR OVC005
     FM271600 33007KT 3SM -SN BR BKN008 OVC020
     FM271900 31010G15KT 5SM -SN BKN025
     FM272100 29008KT P6SM SCT025 BKN070=

USA.gov is the U.S. government's official web portal to all federal, state and local government web resources and services.